Time;durP1;ratioP1;P1;durP2;ratioP2;P2;SDS_P1;SDS_P2;PMS_P1;PMS_P2;Temp;Humidity;BMP_temperature;BMP_pressure;BME280_temperature;BME280_humidity;BME280_pressure;Samples;Min_cycle;Max_cycle;Signal;HPM_P1;HPM_P2
2024/04/18 00:01:03;;;;;;;0.10;0.10;;;;;;;;;;5381481;26;20020;-85
2024/04/18 00:03:30;;;;;;;0.10;0.10;;;;;;;;;;5379775;26;20428;-85
2024/04/18 00:05:56;;;;;;;0.10;0.10;;;;;;;;;;5379773;26;20000;-84
2024/04/18 00:08:22;;;;;;;0.10;0.10;;;;;;;;;;5380077;26;20014;-85
2024/04/18 00:10:51;;;;;;;0.10;0.10;;;;;;;;;;5381164;26;20004;-85
2024/04/18 00:13:18;;;;;;;0.10;0.10;;;;;;;;;;5379384;26;20019;-85
2024/04/18 00:15:44;;;;;;;0.10;0.10;;;;;;;;;;5380899;26;20005;-86
2024/04/18 00:18:10;;;;;;;0.10;0.10;;;;;;;;;;5381416;26;20004;-85
2024/04/18 00:20:36;;;;;;;0.10;0.10;;;;;;;;;;5381227;26;20171;-85
2024/04/18 00:23:02;;;;;;;0.10;0.10;;;;;;;;;;5379625;26;20015;-86
2024/04/18 00:25:31;;;;;;;0.10;0.10;;;;;;;;;;5379629;26;20004;-86
2024/04/18 00:27:57;;;;;;;0.10;0.10;;;;;;;;;;5381218;26;20011;-85
2024/04/18 00:30:23;;;;;;;0.10;0.10;;;;;;;;;;5380938;26;20440;-85
2024/04/18 00:32:51;;;;;;;0.10;0.10;;;;;;;;;;5379452;26;20016;-86
2024/04/18 00:35:17;;;;;;;0.10;0.10;;;;;;;;;;5379632;26;20015;-86
2024/04/18 00:37:43;;;;;;;0.10;0.10;;;;;;;;;;5379472;26;20143;-85
2024/04/18 00:40:10;;;;;;;0.10;0.10;;;;;;;;;;5350451;26;20004;-85
2024/04/18 00:42:38;;;;;;;0.10;0.10;;;;;;;;;;5380236;26;20012;-85
2024/04/18 00:45:04;;;;;;;0.10;0.10;;;;;;;;;;5353354;26;20012;-86
2024/04/18 00:47:31;;;;;;;0.10;0.10;;;;;;;;;;5384416;26;20016;-87
2024/04/18 00:49:57;;;;;;;0.10;0.10;;;;;;;;;;5384255;26;20016;-86
2024/04/18 00:52:43;;;;;;;0.10;0.10;;;;;;;;;;5382861;26;20471;-86
2024/04/18 00:55:10;;;;;;;0.10;0.10;;;;;;;;;;5382352;26;20077;-86
2024/04/18 00:57:56;;;;;;;0.10;0.10;;;;;;;;;;5358480;26;20019;-87
2024/04/18 01:00:22;;;;;;;0.10;0.10;;;;;;;;;;5353416;26;20004;-85
2024/04/18 01:02:48;;;;;;;0.10;0.10;;;;;;;;;;5384272;26;20354;-85
2024/04/18 01:05:14;;;;;;;0.10;0.10;;;;;;;;;;5384045;26;20443;-85
2024/04/18 01:07:40;;;;;;;0.10;0.10;;;;;;;;;;5382345;26;20011;-85
2024/04/18 01:10:07;;;;;;;0.10;0.10;;;;;;;;;;5383955;26;20448;-86
2024/04/18 01:12:33;;;;;;;0.10;0.10;;;;;;;;;;5384038;26;20073;-84
2024/04/18 01:14:59;;;;;;;0.10;0.10;;;;;;;;;;5382250;26;20004;-85
2024/04/18 01:17:25;;;;;;;0.10;0.10;;;;;;;;;;5382316;26;20458;-85
2024/04/18 01:19:51;;;;;;;0.10;0.10;;;;;;;;;;5382335;26;20018;-86
2024/04/18 01:22:17;;;;;;;0.10;0.10;;;;;;;;;;5382246;26;20073;-85
2024/04/18 01:24:43;;;;;;;0.10;0.10;;;;;;;;;;5382092;26;20486;-85
2024/04/18 01:27:09;;;;;;;0.10;0.10;;;;;;;;;;5382178;26;20015;-85
2024/04/18 01:29:35;;;;;;;0.10;0.10;;;;;;;;;;5383660;26;20077;-86
2024/04/18 01:32:02;;;;;;;0.10;0.10;;;;;;;;;;5382099;26;20001;-85
2024/04/18 01:34:28;;;;;;;0.10;0.10;;;;;;;;;;5381913;26;20445;-86
2024/04/18 01:36:54;;;;;;;0.10;0.10;;;;;;;;;;5381772;26;20012;-85
2024/04/18 01:39:20;;;;;;;0.10;0.10;;;;;;;;;;5383820;26;20076;-85
2024/04/18 01:41:47;;;;;;;0.10;0.10;;;;;;;;;;5382232;26;20486;-85
2024/04/18 01:44:13;;;;;;;0.10;0.10;;;;;;;;;;5383524;26;20010;-85
2024/04/18 01:46:39;;;;;;;0.10;0.10;;;;;;;;;;5382542;26;20004;-91
2024/04/18 01:49:05;;;;;;;0.10;0.10;;;;;;;;;;5384454;26;20012;-85
2024/04/18 01:51:32;;;;;;;0.10;0.10;;;;;;;;;;5381645;26;20016;-85
2024/04/18 01:53:58;;;;;;;0.10;0.10;;;;;;;;;;5380005;26;20012;-86
2024/04/18 01:56:24;;;;;;;0.10;0.10;;;;;;;;;;5381828;26;20004;-86
2024/04/18 01:58:50;;;;;;;0.10;0.10;;;;;;;;;;5383371;26;20448;-85
2024/04/18 02:01:16;;;;;;;0.10;0.10;;;;;;;;;;5381494;26;20004;-85
2024/04/18 02:03:42;;;;;;;0.10;0.10;;;;;;;;;;5383257;26;20054;-85
2024/04/18 02:06:08;;;;;;;0.10;0.10;;;;;;;;;;5381669;26;20016;-85
2024/04/18 02:08:34;;;;;;;0.10;0.10;;;;;;;;;;5382992;26;20004;-85
2024/04/18 02:11:00;;;;;;;0.10;0.10;;;;;;;;;;5381466;26;20015;-86
2024/04/18 02:13:26;;;;;;;0.10;0.10;;;;;;;;;;5381558;26;20004;-86
2024/04/18 02:15:52;;;;;;;0.28;0.28;;;;;;;;;;5383241;26;20078;-85
2024/04/18 02:18:19;;;;;;;0.10;0.10;;;;;;;;;;5381391;26;20016;-85
2024/04/18 02:20:45;;;;;;;0.10;0.10;;;;;;;;;;5381208;26;20004;-87
2024/04/18 02:23:11;;;;;;;0.10;0.10;;;;;;;;;;5381417;26;20015;-86
2024/04/18 02:25:37;;;;;;;0.10;0.10;;;;;;;;;;5381397;26;20077;-86
2024/04/18 02:28:03;;;;;;;0.10;0.10;;;;;;;;;;5382971;26;20472;-86
2024/04/18 02:30:29;;;;;;;0.10;0.10;;;;;;;;;;5382927;26;20046;-86
2024/04/18 02:32:56;;;;;;;0.10;0.10;;;;;;;;;;5352205;26;20054;-86
2024/04/18 02:35:22;;;;;;;0.10;0.10;;;;;;;;;;5382990;26;20004;-86
2024/04/18 02:37:48;;;;;;;0.10;0.10;;;;;;;;;;5382876;26;20445;-86
2024/04/18 02:40:14;;;;;;;0.20;0.20;;;;;;;;;;5382695;26;20004;-86
2024/04/18 02:42:40;;;;;;;0.10;0.10;;;;;;;;;;5382702;26;20396;-86
2024/04/18 02:45:07;;;;;;;0.10;0.10;;;;;;;;;;5382898;26;20000;-86
2024/04/18 02:47:33;;;;;;;0.57;0.57;;;;;;;;;;5382827;26;20032;-86
2024/04/18 02:49:59;;;;;;;0.10;0.10;;;;;;;;;;5351893;26;20015;-85
2024/04/18 02:52:25;;;;;;;0.10;0.10;;;;;;;;;;5383078;26;20317;-86
2024/04/18 02:54:51;;;;;;;0.10;0.10;;;;;;;;;;5351962;26;20032;-85
2024/04/18 02:57:17;;;;;;;0.10;0.10;;;;;;;;;;5382605;26;20440;-86
2024/04/18 02:59:43;;;;;;;0.10;0.10;;;;;;;;;;5382548;26;20004;-86
2024/04/18 03:02:10;;;;;;;0.10;0.10;;;;;;;;;;5351913;26;20004;-83
2024/04/18 03:04:36;;;;;;;0.10;0.10;;;;;;;;;;5382609;26;20073;-85
2024/04/18 03:07:02;;;;;;;0.10;0.10;;;;;;;;;;5382343;26;20004;-85
2024/04/18 03:09:28;;;;;;;0.10;0.10;;;;;;;;;;5380785;26;20150;-85
2024/04/18 03:11:56;;;;;;;0.10;0.10;;;;;;;;;;5380837;26;20401;-85
2024/04/18 03:14:22;;;;;;;0.10;0.10;;;;;;;;;;5380739;26;20012;-86
2024/04/18 03:16:51;;;;;;;0.10;0.10;;;;;;;;;;5380733;26;20004;-85
2024/04/18 03:19:38;;;;;;;0.10;0.10;;;;;;;;;;5356805;26;20032;-85
2024/04/18 03:22:04;;;;;;;0.20;0.20;;;;;;;;;;5382089;26;20339;-87
2024/04/18 03:24:30;;;;;;;0.10;0.10;;;;;;;;;;5351665;26;20015;-87
2024/04/18 03:26:56;;;;;;;0.10;0.10;;;;;;;;;;5380816;26;20329;-85
2024/04/18 03:29:42;;;;;;;0.10;0.10;;;;;;;;;;5380711;26;20395;-86
2024/04/18 03:32:08;;;;;;;0.10;0.10;;;;;;;;;;5380400;26;20077;-86
2024/04/18 03:34:34;;;;;;;0.10;0.10;;;;;;;;;;5381975;26;20024;-86
2024/04/18 03:37:00;;;;;;;0.10;0.10;;;;;;;;;;5380425;26;20004;-86
2024/04/18 03:39:30;;;;;;;0.10;0.10;;;;;;;;;;5382413;26;20004;-86
2024/04/18 03:41:56;;;;;;;0.10;0.10;;;;;;;;;;5382102;26;20000;-87
2024/04/18 03:44:22;;;;;;;0.10;0.10;;;;;;;;;;5381790;26;20012;-86
2024/04/18 03:47:09;;;;;;;0.10;0.10;;;;;;;;;;5380611;26;20008;-86
2024/04/18 03:49:35;;;;;;;0.10;0.10;;;;;;;;;;5381967;26;20004;-86
2024/04/18 03:52:20;;;;;;;0.10;0.10;;;;;;;;;;5381371;26;20028;-86
2024/04/18 03:54:46;;;;;;;0.10;0.10;;;;;;;;;;5382111;26;20407;-86
2024/04/18 03:57:33;;;;;;;0.10;0.10;;;;;;;;;;5356493;26;20012;-86
2024/04/18 03:59:59;;;;;;;0.10;0.10;;;;;;;;;;5381987;26;20004;-86
2024/04/18 04:02:25;;;;;;;0.10;0.10;;;;;;;;;;5380273;26;20022;-86
2024/04/18 04:04:55;;;;;;;0.10;0.10;;;;;;;;;;5382075;26;20026;-86
2024/04/18 04:07:21;;;;;;;0.20;0.20;;;;;;;;;;5381463;26;20725;-85
2024/04/18 04:10:07;;;;;;;0.17;0.17;;;;;;;;;;5356205;26;20005;-86
2024/04/18 04:12:36;;;;;;;0.10;0.10;;;;;;;;;;5381590;26;20332;-86
2024/04/18 04:15:02;;;;;;;0.10;0.10;;;;;;;;;;5379722;26;20016;-84
2024/04/18 04:17:50;;;;;;;0.10;0.10;;;;;;;;;;5354379;26;20004;-85
2024/04/18 04:20:16;;;;;;;0.10;0.10;;;;;;;;;;5381127;26;20015;-86
2024/04/18 04:22:42;;;;;;;0.10;0.10;;;;;;;;;;5379688;26;20016;-85
2024/04/18 04:25:08;;;;;;;0.10;0.10;;;;;;;;;;5381237;26;20032;-85
2024/04/18 04:27:46;;;;;;;0.10;0.10;;;;;;;;;;5381261;26;20015;-86
2024/04/18 04:30:12;;;;;;;0.10;0.10;;;;;;;;;;5379507;26;20451;-85
2024/04/18 04:32:38;;;;;;;0.10;0.10;;;;;;;;;;5350551;26;20016;-85
2024/04/18 04:35:05;;;;;;;0.10;0.10;;;;;;;;;;5379528;26;20019;-85
2024/04/18 04:37:32;;;;;;;0.10;0.10;;;;;;;;;;5350653;26;20005;-85
2024/04/18 04:39:58;;;;;;;0.10;0.10;;;;;;;;;;5379455;26;20004;-86
2024/04/18 04:42:24;;;;;;;0.10;0.10;;;;;;;;;;5381061;26;20352;-85
2024/04/18 04:44:51;;;;;;;0.10;0.10;;;;;;;;;;5350327;26;20015;-85
2024/04/18 04:47:17;;;;;;;0.10;0.10;;;;;;;;;;5380953;26;20213;-85
2024/04/18 04:49:44;;;;;;;0.20;0.20;;;;;;;;;;5381038;26;20005;-86
2024/04/18 04:52:10;;;;;;;0.10;0.10;;;;;;;;;;5379160;26;20019;-86
2024/04/18 04:54:37;;;;;;;0.10;0.10;;;;;;;;;;5380734;26;20004;-86
2024/04/18 04:57:03;;;;;;;0.10;0.10;;;;;;;;;;5350417;26;20073;-85
2024/04/18 04:59:30;;;;;;;0.10;0.10;;;;;;;;;;5380961;26;20015;-86
2024/04/18 05:01:56;;;;;;;0.10;0.10;;;;;;;;;;5380481;26;20005;-86
2024/04/18 05:04:22;;;;;;;0.10;0.10;;;;;;;;;;5379092;26;20044;-86
2024/04/18 05:06:48;;;;;;;0.10;0.10;;;;;;;;;;5380701;26;20015;-86
2024/04/18 05:09:16;;;;;;;0.10;0.10;;;;;;;;;;5380793;26;20390;-86
2024/04/18 05:11:42;;;;;;;0.10;0.10;;;;;;;;;;5380715;26;20015;-85
2024/04/18 05:14:08;;;;;;;0.10;0.10;;;;;;;;;;5380466;26;20012;-85
2024/04/18 05:16:34;;;;;;;0.10;0.10;;;;;;;;;;5378818;26;20004;-86
2024/04/18 05:19:00;;;;;;;0.10;0.10;;;;;;;;;;5380452;26;20349;-85
2024/04/18 05:21:26;;;;;;;0.10;0.10;;;;;;;;;;5380223;26;20005;-85
2024/04/18 05:23:53;;;;;;;0.10;0.10;;;;;;;;;;5378712;26;20320;-85
2024/04/18 05:26:19;;;;;;;0.10;0.10;;;;;;;;;;5378442;26;20011;-85
2024/04/18 05:31:29;;;;;;;0.10;0.10;;;;;;;;;;5382482;26;20004;-85
2024/04/18 05:33:55;;;;;;;0.10;0.10;;;;;;;;;;5383481;26;20491;-84
2024/04/18 05:36:22;;;;;;;0.10;0.10;;;;;;;;;;5383556;26;20005;-85
2024/04/18 05:38:48;;;;;;;0.10;0.10;;;;;;;;;;5381951;26;20015;-85
2024/04/18 05:41:14;;;;;;;0.10;0.10;;;;;;;;;;5383492;26;20440;-86
2024/04/18 05:43:40;;;;;;;0.10;0.10;;;;;;;;;;5383296;26;20004;-87
2024/04/18 05:46:06;;;;;;;0.10;0.10;;;;;;;;;;5382235;26;20035;-84
2024/04/18 05:48:33;;;;;;;0.10;0.10;;;;;;;;;;5353319;26;20214;-85
2024/04/18 05:50:59;;;;;;;0.10;0.10;;;;;;;;;;5383459;26;20004;-84
2024/04/18 05:53:25;;;;;;;0.30;0.30;;;;;;;;;;5381503;26;20015;-84
2024/04/18 05:55:51;;;;;;;0.10;0.10;;;;;;;;;;5383874;26;20078;-85
2024/04/18 05:58:17;;;;;;;0.20;0.20;;;;;;;;;;5382066;26;20042;-85
2024/04/18 06:00:44;;;;;;;0.10;0.10;;;;;;;;;;5381470;26;20011;-85
2024/04/18 06:03:10;;;;;;;0.10;0.10;;;;;;;;;;5383352;26;20000;-85
2024/04/18 06:05:37;;;;;;;0.10;0.10;;;;;;;;;;5383438;26;20012;-85
2024/04/18 06:08:03;;;;;;;0.10;0.10;;;;;;;;;;5381605;26;20004;-85
2024/04/18 06:10:29;;;;;;;0.10;0.10;;;;;;;;;;5381380;26;20325;-85
2024/04/18 06:12:55;;;;;;;0.10;0.10;;;;;;;;;;5381364;26;20078;-85
2024/04/18 06:15:21;;;;;;;0.10;0.10;;;;;;;;;;5381238;26;20004;-84
2024/04/18 06:17:47;;;;;;;0.10;0.10;;;;;;;;;;5382014;26;20011;-91
2024/04/18 06:20:14;;;;;;;0.10;0.10;;;;;;;;;;5382197;26;20012;-93
2024/04/18 06:22:40;;;;;;;0.10;0.10;;;;;;;;;;5353138;26;20016;-91
2024/04/18 06:25:06;;;;;;;0.10;0.10;;;;;;;;;;5382178;26;20099;-88
2024/04/18 06:27:32;;;;;;;0.10;0.10;;;;;;;;;;5383258;26;20412;-89
2024/04/18 06:29:58;;;;;;;0.10;0.10;;;;;;;;;;5382460;26;20004;-89
2024/04/18 06:32:24;;;;;;;0.10;0.10;;;;;;;;;;5382343;26;20016;-91
2024/04/18 06:34:50;;;;;;;0.10;0.10;;;;;;;;;;5353941;26;20004;-93
2024/04/18 06:37:16;;;;;;;0.10;0.10;;;;;;;;;;5382963;26;20015;-92
2024/04/18 06:39:43;;;;;;;0.10;0.10;;;;;;;;;;5382429;26;20004;-84
2024/04/18 06:42:09;;;;;;;0.10;0.10;;;;;;;;;;5382790;26;20332;-82
2024/04/18 06:44:36;;;;;;;0.10;0.10;;;;;;;;;;5382840;26;20075;-85
2024/04/18 06:47:02;;;;;;;0.10;0.10;;;;;;;;;;5382702;26;20014;-85
2024/04/18 06:49:29;;;;;;;0.20;0.20;;;;;;;;;;5382651;26;20028;-85
2024/04/18 06:51:55;;;;;;;0.20;0.20;;;;;;;;;;5382426;26;20016;-85
2024/04/18 06:54:21;;;;;;;0.10;0.10;;;;;;;;;;5380664;26;20038;-84
2024/04/18 06:56:47;;;;;;;0.10;0.10;;;;;;;;;;5381475;26;20005;-83
2024/04/18 06:59:13;;;;;;;0.10;0.10;;;;;;;;;;5381187;26;20014;-82
2024/04/18 07:01:39;;;;;;;0.10;0.10;;;;;;;;;;5382507;26;20004;-83
2024/04/18 07:04:05;;;;;;;0.10;0.10;;;;;;;;;;5382483;26;20004;-84
2024/04/18 07:06:32;;;;;;;0.10;0.10;;;;;;;;;;5351772;26;20015;-85
2024/04/18 07:08:58;;;;;;;0.10;0.10;;;;;;;;;;5351679;26;20011;-86
2024/04/18 07:11:24;;;;;;;0.10;0.10;;;;;;;;;;5380616;26;20004;-85
2024/04/18 07:13:52;;;;;;;0.10;0.10;;;;;;;;;;5382280;26;20015;-84
2024/04/18 07:16:18;;;;;;;0.10;0.10;;;;;;;;;;5380510;26;20004;-84
2024/04/18 07:18:44;;;;;;;0.10;0.10;;;;;;;;;;5382078;26;20000;-84
2024/04/18 07:21:10;;;;;;;0.10;0.10;;;;;;;;;;5382253;26;20041;-86
2024/04/18 07:23:37;;;;;;;0.10;0.10;;;;;;;;;;5382319;26;20077;-87
2024/04/18 07:26:03;;;;;;;0.20;0.20;;;;;;;;;;5352323;26;20014;-88
2024/04/18 07:28:29;;;;;;;0.10;0.10;;;;;;;;;;5351605;26;20004;-89
2024/04/18 07:30:55;;;;;;;0.10;0.10;;;;;;;;;;5351447;26;20077;-88
2024/04/18 07:33:21;;;;;;;0.10;0.10;;;;;;;;;;5381947;26;20352;-91
2024/04/18 07:35:56;;;;;;;0.10;0.10;;;;;;;;;;5381033;26;20416;-90
2024/04/18 07:38:23;;;;;;;0.40;0.40;;;;;;;;;;5380426;26;20012;-88
2024/04/18 07:40:49;;;;;;;0.10;0.10;;;;;;;;;;5380668;26;20012;-90
2024/04/18 07:43:17;;;;;;;0.10;0.10;;;;;;;;;;5383250;26;20004;-95
2024/04/18 07:45:43;;;;;;;0.10;0.10;;;;;;;;;;5353362;26;20009;-91
2024/04/18 07:48:10;;;;;;;0.10;0.10;;;;;;;;;;5381985;26;20015;-89
2024/04/18 07:50:37;;;;;;;0.15;0.15;;;;;;;;;;5380466;26;20440;-86
2024/04/18 07:53:03;;;;;;;0.10;0.10;;;;;;;;;;5381257;26;20380;-91
2024/04/18 07:55:30;;;;;;;0.10;0.10;;;;;;;;;;5381419;26;20008;-85
2024/04/18 07:57:56;;;;;;;0.10;0.10;;;;;;;;;;5381897;26;20011;-85
2024/04/18 08:00:22;;;;;;;0.10;0.10;;;;;;;;;;5381468;26;20502;-84
2024/04/18 08:02:49;;;;;;;0.10;0.10;;;;;;;;;;5381599;26;20085;-88
2024/04/18 08:05:15;;;;;;;0.10;0.10;;;;;;;;;;5380167;26;20020;-88
2024/04/18 08:07:41;;;;;;;0.45;0.20;;;;;;;;;;5381958;26;20011;-84
2024/04/18 08:10:07;;;;;;;0.20;0.20;;;;;;;;;;5379771;26;20011;-87
2024/04/18 08:12:34;;;;;;;0.10;0.10;;;;;;;;;;5379767;26;20012;-87
2024/04/18 08:15:01;;;;;;;0.10;0.10;;;;;;;;;;5379400;26;20001;-88
2024/04/18 08:17:28;;;;;;;0.10;0.10;;;;;;;;;;5350983;26;20008;-88
2024/04/18 08:19:54;;;;;;;0.10;0.10;;;;;;;;;;5380027;26;20423;-88
2024/04/18 08:22:20;;;;;;;0.10;0.10;;;;;;;;;;5379523;26;20000;-88
2024/04/18 08:24:46;;;;;;;0.10;0.10;;;;;;;;;;5350626;26;20016;-88
2024/04/18 08:27:12;;;;;;;0.10;0.10;;;;;;;;;;5381436;26;20004;-84
2024/04/18 08:29:38;;;;;;;0.10;0.10;;;;;;;;;;5379381;26;20124;-84
2024/04/18 08:32:05;;;;;;;0.10;0.10;;;;;;;;;;5355722;26;20019;-85
2024/04/18 08:34:31;;;;;;;0.10;0.10;;;;;;;;;;5344935;26;20024;-85
2024/04/18 08:36:57;;;;;;;0.10;0.10;;;;;;;;;;5343500;26;20036;-85
2024/04/18 08:39:23;;;;;;;0.10;0.10;;;;;;;;;;5345918;26;20015;-85
2024/04/18 08:41:49;;;;;;;0.10;0.10;;;;;;;;;;5345904;26;20440;-85
2024/04/18 08:44:15;;;;;;;0.10;0.10;;;;;;;;;;5344049;26;20020;-84
2024/04/18 08:46:41;;;;;;;0.10;0.10;;;;;;;;;;5345845;26;20169;-83
2024/04/18 08:49:08;;;;;;;0.10;0.10;;;;;;;;;;5343896;26;20005;-83
2024/04/18 08:51:38;;;;;;;0.10;0.10;;;;;;;;;;5344011;26;20025;-83
2024/04/18 08:54:04;;;;;;;0.10;0.10;;;;;;;;;;5345585;26;20005;-83
2024/04/18 08:56:34;;;;;;;0.10;0.10;;;;;;;;;;5344528;26;20004;-83
2024/04/18 08:59:00;;;;;;;0.10;0.10;;;;;;;;;;5345670;26;20005;-83
2024/04/18 09:01:26;;;;;;;0.10;0.10;;;;;;;;;;5344026;26;20005;-84
2024/04/18 09:03:53;;;;;;;0.10;0.10;;;;;;;;;;5346968;26;20005;-84
2024/04/18 09:06:19;;;;;;;0.10;0.10;;;;;;;;;;5347255;26;20005;-84
2024/04/18 09:08:45;;;;;;;0.10;0.10;;;;;;;;;;5348917;26;20115;-88
2024/04/18 09:11:11;;;;;;;0.10;0.10;;;;;;;;;;5348726;26;20357;-87
2024/04/18 09:13:38;;;;;;;0.10;0.10;;;;;;;;;;5376515;26;20001;-87
2024/04/18 09:16:04;;;;;;;0.10;0.10;;;;;;;;;;5347691;26;20017;-86
2024/04/18 09:18:34;;;;;;;0.10;0.10;;;;;;;;;;5347107;26;20028;-87
2024/04/18 09:21:01;;;;;;;0.10;0.10;;;;;;;;;;5347135;26;20005;-86
2024/04/18 09:23:27;;;;;;;0.10;0.10;;;;;;;;;;5376330;26;20054;-85
2024/04/18 09:25:54;;;;;;;0.10;0.10;;;;;;;;;;5347241;26;20012;-85
2024/04/18 09:28:20;;;;;;;0.10;0.10;;;;;;;;;;5376359;26;20006;-85
2024/04/18 09:30:46;;;;;;;0.10;0.10;;;;;;;;;;5349124;26;20330;-85
2024/04/18 09:33:12;;;;;;;0.10;0.10;;;;;;;;;;5347065;26;20005;-84
2024/04/18 09:35:38;;;;;;;0.10;0.10;;;;;;;;;;5347762;26;20413;-85
2024/04/18 09:38:06;;;;;;;0.10;0.10;;;;;;;;;;5346487;26;20048;-85
2024/04/18 09:40:33;;;;;;;0.10;0.10;;;;;;;;;;5374411;26;20016;-84
2024/04/18 09:43:15;;;;;;;0.10;0.10;;;;;;;;;;5346931;26;20009;-86
2024/04/18 09:45:49;;;;;;;0.10;0.10;;;;;;;;;;5348657;26;20025;-86
2024/04/18 09:48:16;;;;;;;0.10;0.10;;;;;;;;;;5347191;26;20009;-86
2024/04/18 09:50:42;;;;;;;0.10;0.10;;;;;;;;;;5346926;26;20024;-86
2024/04/18 09:53:09;;;;;;;0.10;0.10;;;;;;;;;;5375471;26;20053;-85
2024/04/18 09:55:36;;;;;;;0.10;0.10;;;;;;;;;;5346762;26;20492;-85
2024/04/18 09:58:02;;;;;;;0.20;0.20;;;;;;;;;;5346366;26;20028;-86
2024/04/18 10:00:28;;;;;;;0.10;0.10;;;;;;;;;;5347108;26;20009;-85
2024/04/18 10:02:55;;;;;;;0.10;0.10;;;;;;;;;;5348206;26;20522;-87
2024/04/18 10:05:21;;;;;;;0.10;0.10;;;;;;;;;;5349621;26;20005;-87
2024/04/18 10:07:47;;;;;;;0.10;0.10;;;;;;;;;;5348416;26;20021;-85
2024/04/18 10:10:13;;;;;;;0.10;0.10;;;;;;;;;;5345960;26;20001;-85
2024/04/18 10:12:40;;;;;;;0.17;0.17;;;;;;;;;;5348358;26;20001;-86
2024/04/18 10:15:07;;;;;;;0.10;0.10;;;;;;;;;;5346437;26;20013;-87
2024/04/18 10:17:33;;;;;;;0.10;0.10;;;;;;;;;;5346497;26;20016;-87
2024/04/18 10:20:00;;;;;;;0.10;0.10;;;;;;;;;;5346197;26;20009;-86
2024/04/18 10:22:28;;;;;;;0.10;0.10;;;;;;;;;;5346314;26;20017;-86
2024/04/18 10:24:55;;;;;;;0.10;0.10;;;;;;;;;;5348063;26;20008;-88
2024/04/18 10:27:21;;;;;;;0.10;0.10;;;;;;;;;;5346190;26;20009;-88
2024/04/18 10:29:56;;;;;;;0.10;0.10;;;;;;;;;;5346479;26;20009;-84
2024/04/18 10:32:32;;;;;;;0.10;0.10;;;;;;;;;;5347033;26;20009;-85
2024/04/18 10:34:58;;;;;;;0.10;0.10;;;;;;;;;;5347608;26;20009;-86
2024/04/18 10:37:24;;;;;;;0.10;0.10;;;;;;;;;;5347411;26;20453;-86
2024/04/18 10:39:51;;;;;;;0.10;0.10;;;;;;;;;;5347708;26;20081;-84
2024/04/18 10:42:20;;;;;;;0.10;0.10;;;;;;;;;;5346333;26;20037;-87
2024/04/18 10:44:46;;;;;;;0.20;0.20;;;;;;;;;;5347872;26;20104;-85
2024/04/18 10:47:13;;;;;;;0.20;0.20;;;;;;;;;;5347549;26;20078;-86
2024/04/18 10:49:39;;;;;;;0.10;0.10;;;;;;;;;;5345822;26;20023;-86
2024/04/18 10:52:10;;;;;;;0.20;0.20;;;;;;;;;;5346064;26;20009;-89
2024/04/18 10:54:38;;;;;;;0.10;0.10;;;;;;;;;;5347041;26;20448;-84
2024/04/18 10:57:04;;;;;;;0.10;0.10;;;;;;;;;;5347465;26;20008;-83
2024/04/18 10:59:30;;;;;;;0.10;0.10;;;;;;;;;;5345828;26;20445;-83
2024/04/18 11:02:06;;;;;;;0.10;0.10;;;;;;;;;;5374381;26;20005;-84
2024/04/18 11:04:32;;;;;;;0.20;0.20;;;;;;;;;;5345532;26;20020;-84
2024/04/18 11:06:58;;;;;;;0.10;0.10;;;;;;;;;;5346906;26;20020;-84
2024/04/18 11:09:24;;;;;;;0.10;0.10;;;;;;;;;;5347391;26;20336;-84
2024/04/18 11:11:50;;;;;;;0.10;0.10;;;;;;;;;;5347318;26;20009;-83
2024/04/18 11:14:17;;;;;;;0.10;0.10;;;;;;;;;;5346197;26;20033;-83
2024/04/18 11:16:43;;;;;;;0.10;0.10;;;;;;;;;;5346078;26;20016;-83
2024/04/18 11:19:10;;;;;;;0.10;0.10;;;;;;;;;;5369217;26;20445;-83
2024/04/18 11:21:36;;;;;;;0.38;0.20;;;;;;;;;;5348253;26;20005;-83
2024/04/18 11:24:02;;;;;;;0.20;0.20;;;;;;;;;;5379678;26;20023;-83
2024/04/18 11:26:29;;;;;;;0.10;0.10;;;;;;;;;;5381419;26;20008;-84
2024/04/18 11:28:55;;;;;;;0.10;0.10;;;;;;;;;;5347002;26;20009;-82
2024/04/18 11:31:22;;;;;;;0.10;0.10;;;;;;;;;;5330912;26;20051;-82
2024/04/18 11:33:48;;;;;;;0.10;0.10;;;;;;;;;;5380304;26;20020;-87
2024/04/18 11:36:14;;;;;;;0.10;0.10;;;;;;;;;;5380605;26;20341;-82
2024/04/18 11:38:40;;;;;;;0.13;0.13;;;;;;;;;;5365141;26;20004;-83
2024/04/18 11:41:06;;;;;;;0.13;0.13;;;;;;;;;;5409582;26;20080;-83
2024/04/18 11:43:32;;;;;;;0.10;0.10;;;;;;;;;;5381607;26;20023;-83
2024/04/18 11:45:59;;;;;;;0.10;0.10;;;;;;;;;;5381394;26;20012;-83
2024/04/18 11:48:25;;;;;;;0.10;0.10;;;;;;;;;;5350624;26;20008;-83
2024/04/18 11:50:52;;;;;;;0.13;0.13;;;;;;;;;;5350653;26;20464;-83
2024/04/18 11:53:18;;;;;;;0.10;0.10;;;;;;;;;;5409280;26;20008;-83
2024/04/18 11:55:45;;;;;;;0.10;0.10;;;;;;;;;;5409394;26;20016;-82
2024/04/18 11:58:11;;;;;;;0.10;0.10;;;;;;;;;;5381472;26;20000;-83
2024/04/18 12:00:37;;;;;;;9.85;1.27;;;;;;;;;;5381285;26;20004;-83
2024/04/18 12:03:03;;;;;;;0.20;0.20;;;;;;;;;;5381227;26;20458;-83
2024/04/18 12:05:29;;;;;;;0.10;0.10;;;;;;;;;;5379666;26;20008;-83
2024/04/18 12:07:56;;;;;;;0.38;0.38;;;;;;;;;;5350613;26;20004;-85
2024/04/18 12:10:22;;;;;;;0.10;0.10;;;;;;;;;;5409381;26;20036;-85
2024/04/18 12:12:48;;;;;;;0.35;0.20;;;;;;;;;;5408761;26;20012;-83
2024/04/18 12:15:14;;;;;;;0.10;0.10;;;;;;;;;;5380370;26;20019;-85
2024/04/18 12:17:40;;;;;;;0.10;0.10;;;;;;;;;;5350229;26;20008;-84
2024/04/18 12:20:06;;;;;;;0.10;0.10;;;;;;;;;;5379236;26;20027;-86
2024/04/18 12:22:33;;;;;;;0.10;0.10;;;;;;;;;;5381118;26;20463;-87
2024/04/18 12:25:01;;;;;;;1.25;0.20;;;;;;;;;;5381476;26;20007;-88
2024/04/18 12:27:28;;;;;;;0.20;0.20;;;;;;;;;;5351263;26;20008;-87
2024/04/18 12:29:54;;;;;;;0.20;0.20;;;;;;;;;;5414119;26;20011;-84
2024/04/18 12:32:21;;;;;;;0.20;0.20;;;;;;;;;;5379780;26;20085;-86
2024/04/18 12:34:50;;;;;;;3.20;1.48;;;;;;;;;;5408925;26;20015;-85
2024/04/18 12:37:17;;;;;;;0.20;0.20;;;;;;;;;;5381054;26;20005;-84
2024/04/18 12:39:45;;;;;;;0.20;0.20;;;;;;;;;;5383353;26;20055;-84
2024/04/18 12:42:11;;;;;;;0.17;0.17;;;;;;;;;;5353815;26;20004;-85
2024/04/18 12:44:37;;;;;;;0.10;0.10;;;;;;;;;;5353517;26;20004;-84
2024/04/18 12:47:04;;;;;;;0.10;0.10;;;;;;;;;;5384694;26;20000;-85
2024/04/18 12:49:30;;;;;;;0.52;0.20;;;;;;;;;;5382458;26;20004;-85
2024/04/18 12:51:56;;;;;;;0.10;0.10;;;;;;;;;;5382292;26;20011;-85
2024/04/18 12:54:22;;;;;;;0.20;0.20;;;;;;;;;;5382615;26;20014;-85
2024/04/18 12:56:51;;;;;;;0.10;0.10;;;;;;;;;;5384515;26;20019;-84
2024/04/18 12:59:17;;;;;;;0.10;0.10;;;;;;;;;;5382580;26;20004;-84
2024/04/18 13:01:43;;;;;;;0.10;0.10;;;;;;;;;;5383915;26;20001;-84
2024/04/18 13:04:09;;;;;;;1.27;0.52;;;;;;;;;;5384264;26;20008;-87
2024/04/18 13:06:35;;;;;;;0.10;0.10;;;;;;;;;;5384016;26;20016;-87
2024/04/18 13:09:01;;;;;;;0.10;0.10;;;;;;;;;;5382481;26;20004;-88
2024/04/18 13:11:27;;;;;;;0.80;0.80;;;;;;;;;;5384092;26;20004;-87
2024/04/18 13:13:54;;;;;;;0.10;0.10;;;;;;;;;;5384328;26;20004;-88
2024/04/18 13:16:20;;;;;;;0.10;0.10;;;;;;;;;;5384384;26;20004;-87
2024/04/18 13:18:46;;;;;;;0.20;0.20;;;;;;;;;;5384344;26;20249;-88
2024/04/18 13:21:14;;;;;;;0.28;0.28;;;;;;;;;;5382317;26;20004;-88
2024/04/18 13:23:40;;;;;;;0.10;0.10;;;;;;;;;;5382739;26;20004;-88
2024/04/18 13:26:06;;;;;;;0.10;0.10;;;;;;;;;;5412378;26;20374;-88
2024/04/18 13:28:32;;;;;;;0.10;0.10;;;;;;;;;;5411999;26;20004;-88
2024/04/18 13:31:01;;;;;;;0.10;0.10;;;;;;;;;;5383828;26;20038;-88
2024/04/18 13:33:27;;;;;;;0.10;0.10;;;;;;;;;;5382107;26;20016;-89
2024/04/18 13:35:53;;;;;;;0.40;0.40;;;;;;;;;;5382282;26;20045;-88
2024/04/18 13:38:20;;;;;;;0.45;0.30;;;;;;;;;;5382368;26;20016;-88
2024/04/18 13:40:46;;;;;;;0.55;0.32;;;;;;;;;;5384111;26;20441;-88
2024/04/18 13:43:12;;;;;;;0.10;0.10;;;;;;;;;;5384260;26;20004;-89
2024/04/18 13:45:38;;;;;;;0.30;0.30;;;;;;;;;;5411997;26;20004;-89
2024/04/18 13:48:05;;;;;;;0.10;0.10;;;;;;;;;;5411886;26;20004;-89
2024/04/18 13:50:31;;;;;;;0.10;0.10;;;;;;;;;;5382050;26;20425;-88
2024/04/18 13:52:57;;;;;;;0.10;0.10;;;;;;;;;;5383848;26;20004;-88
2024/04/18 13:55:23;;;;;;;0.10;0.10;;;;;;;;;;5412105;26;20015;-89
2024/04/18 13:57:51;;;;;;;0.10;0.10;;;;;;;;;;5383941;26;20028;-89
2024/04/18 14:00:17;;;;;;;0.13;0.13;;;;;;;;;;5383622;26;20016;-89
2024/04/18 14:02:43;;;;;;;0.10;0.10;;;;;;;;;;5383528;26;20004;-87
2024/04/18 14:05:11;;;;;;;0.10;0.10;;;;;;;;;;5383397;26;20004;-88
2024/04/18 14:07:37;;;;;;;0.25;0.25;;;;;;;;;;5381166;26;20321;-87
2024/04/18 14:10:04;;;;;;;0.10;0.10;;;;;;;;;;5383049;26;20081;-89
2024/04/18 14:12:30;;;;;;;0.10;0.10;;;;;;;;;;5383177;26;20080;-86
2024/04/18 14:15:06;;;;;;;0.20;0.20;;;;;;;;;;5380319;26;20012;-89
2024/04/18 14:20:17;;;;;;;0.10;0.10;;;;;;;;;;5346289;26;20414;-88
2024/04/18 14:22:43;;;;;;;0.20;0.20;;;;;;;;;;5375160;26;20016;-87
2024/04/18 14:25:09;;;;;;;0.10;0.10;;;;;;;;;;5347724;26;20005;-89
2024/04/18 14:27:35;;;;;;;0.10;0.10;;;;;;;;;;5349259;26;20009;-84
2024/04/18 14:30:02;;;;;;;0.47;0.47;;;;;;;;;;5348149;26;20368;-91
2024/04/18 14:32:28;;;;;;;0.10;0.10;;;;;;;;;;5347555;26;20102;-91
2024/04/18 14:34:54;;;;;;;0.28;0.28;;;;;;;;;;5376821;26;20049;-90
2024/04/18 14:37:20;;;;;;;0.10;0.10;;;;;;;;;;5347755;26;20033;-92
2024/04/18 14:39:46;;;;;;;0.10;0.10;;;;;;;;;;5346008;26;20008;-85
2024/04/18 14:42:12;;;;;;;0.10;0.10;;;;;;;;;;5374857;26;20082;-86
2024/04/18 14:44:39;;;;;;;0.10;0.10;;;;;;;;;;5374980;26;20020;-88
2024/04/18 14:47:05;;;;;;;0.10;0.10;;;;;;;;;;5346165;26;20012;-88